DAL2042 KFSD-KMSP
Flight info
| Callsign | DAL2042 |
|---|---|
| Flight time | 0h 40m |
| Altitude | 29000 |
| Route | SSWAN TORGY3 |
| Aircraft | A319/M-SDE3FGHIRWY/LB1 |
Departure
| Time | 2026-04-30 21:22 |
|---|---|
| Airport | Sioux Falls Regional Airport (KFSD) |
Arrival
| Time | 2026-04-30 22:03 |
|---|---|
| Airport | Minneapolis–Saint Paul International Airport / Wold–Chamberlain Field (KMSP) |
| Time | Latitude | Longitude | Altitude | Speed | Heading |
|---|---|---|---|---|---|
| 2026-04-30 20:27 | 43.58029 | -96.73402 | 1426 ft | 0 kts | 72° |
| 2026-04-30 21:13 | 43.58029 | -96.73403 | 1426 ft | 1 kts | 73° |
| 2026-04-30 21:13 | 43.58021 | -96.73420 | 1426 ft | 2 kts | 36° |
| 2026-04-30 21:13 | 43.58008 | -96.73428 | 1426 ft | 2 kts | 5° |
| 2026-04-30 21:14 | 43.57993 | -96.73425 | 1426 ft | 2 kts | 332° |
| 2026-04-30 21:14 | 43.57982 | -96.73413 | 1426 ft | 0 kts | 302° |
| 2026-04-30 21:14 | 43.57979 | -96.73405 | 1426 ft | 1 kts | 296° |
| 2026-04-30 21:14 | 43.57978 | -96.73403 | 1426 ft | 0 kts | 297° |
| 2026-04-30 21:17 | 43.57980 | -96.73405 | 1426 ft | 1 kts | 297° |
| 2026-04-30 21:17 | 43.57991 | -96.73433 | 1426 ft | 7 kts | 299° |
| 2026-04-30 21:17 | 43.58019 | -96.73498 | 1426 ft | 8 kts | 301° |
| 2026-04-30 21:18 | 43.58011 | -96.73576 | 1426 ft | 9 kts | 211° |
| 2026-04-30 21:18 | 43.57943 | -96.73558 | 1426 ft | 11 kts | 155° |
| 2026-04-30 21:18 | 43.57869 | -96.73511 | 1426 ft | 12 kts | 155° |
| 2026-04-30 21:18 | 43.57788 | -96.73459 | 1426 ft | 13 kts | 155° |
| 2026-04-30 21:19 | 43.57698 | -96.73402 | 1426 ft | 14 kts | 154° |
| 2026-04-30 21:19 | 43.57603 | -96.73341 | 1426 ft | 15 kts | 155° |
| 2026-04-30 21:19 | 43.57503 | -96.73275 | 1426 ft | 16 kts | 155° |
| 2026-04-30 21:19 | 43.57402 | -96.73248 | 1426 ft | 0 kts | 191° |
| 2026-04-30 21:20 | 43.57403 | -96.73248 | 1426 ft | 0 kts | 191° |
| 2026-04-30 21:20 | 43.57402 | -96.73248 | 1426 ft | 0 kts | 191° |
| 2026-04-30 21:20 | 43.57390 | -96.73254 | 1426 ft | 3 kts | 201° |
| 2026-04-30 21:20 | 43.57367 | -96.73276 | 1426 ft | 4 kts | 228° |
| 2026-04-30 21:21 | 43.57350 | -96.73322 | 1426 ft | 5 kts | 264° |
| 2026-04-30 21:21 | 43.57378 | -96.73362 | 1426 ft | 0 kts | 333° |
| 2026-04-30 21:21 | 43.57404 | -96.73380 | 1426 ft | 25 kts | 333° |
| 2026-04-30 21:22 | 43.57815 | -96.73645 | 1426 ft | 101 kts | 334° |
| 2026-04-30 21:22 | 43.61098 | -96.74470 | 2254 ft | 207 kts | 15° |
| 2026-04-30 21:23 | 43.62396 | -96.73408 | 2828 ft | 231 kts | 41° |
| 2026-04-30 21:23 | 43.63415 | -96.71613 | 3579 ft | 247 kts | 56° |
| 2026-04-30 21:23 | 43.64841 | -96.67107 | 5250 ft | 266 kts | 66° |
| 2026-04-30 21:24 | 43.65472 | -96.64717 | 6150 ft | 272 kts | 67° |
| 2026-04-30 21:24 | 43.66111 | -96.62237 | 6954 ft | 281 kts | 66° |
| 2026-04-30 21:24 | 43.66834 | -96.59684 | 7749 ft | 290 kts | 64° |
| 2026-04-30 21:24 | 43.67804 | -96.57302 | 8706 ft | 287 kts | 48° |
| 2026-04-30 21:25 | 43.70191 | -96.53397 | 11271 ft | 264 kts | 46° |
| 2026-04-30 21:25 | 43.71369 | -96.51363 | 11855 ft | 279 kts | 44° |
| 2026-04-30 21:25 | 43.72777 | -96.49447 | 12370 ft | 289 kts | 30° |
| 2026-04-30 21:26 | 43.76252 | -96.46042 | 13266 ft | 328 kts | 40° |
| 2026-04-30 21:26 | 43.77884 | -96.43740 | 13856 ft | 339 kts | 41° |
| 2026-04-30 21:27 | 43.81241 | -96.39130 | 15400 ft | 347 kts | 39° |
| 2026-04-30 21:27 | 43.83003 | -96.36822 | 16101 ft | 351 kts | 38° |
| 2026-04-30 21:27 | 43.84800 | -96.34514 | 16775 ft | 356 kts | 38° |
| 2026-04-30 21:28 | 43.88501 | -96.29793 | 18051 ft | 366 kts | 37° |
| 2026-04-30 21:28 | 43.90383 | -96.27412 | 18654 ft | 370 kts | 37° |
| 2026-04-30 21:28 | 43.94223 | -96.22567 | 19901 ft | 378 kts | 37° |
| 2026-04-30 21:29 | 43.96164 | -96.20119 | 20517 ft | 382 kts | 37° |
| 2026-04-30 21:29 | 44.02174 | -96.12531 | 22316 ft | 392 kts | 37° |
| 2026-04-30 21:30 | 44.06226 | -96.07410 | 23403 ft | 399 kts | 37° |
| 2026-04-30 21:31 | 44.12442 | -95.99536 | 24892 ft | 408 kts | 37° |
| 2026-04-30 21:31 | 44.16186 | -95.93408 | 25046 ft | 419 kts | 54° |
| 2026-04-30 21:32 | 44.18760 | -95.86044 | 25058 ft | 424 kts | 62° |
| 2026-04-30 21:32 | 44.19922 | -95.82303 | 25059 ft | 424 kts | 63° |
| 2026-04-30 21:32 | 44.21090 | -95.78531 | 25063 ft | 420 kts | 62° |
| 2026-04-30 21:32 | 44.22237 | -95.74839 | 25063 ft | 417 kts | 62° |
| 2026-04-30 21:33 | 44.23391 | -95.71144 | 25063 ft | 416 kts | 62° |
| 2026-04-30 21:33 | 44.25705 | -95.63758 | 25069 ft | 416 kts | 62° |
| 2026-04-30 21:33 | 44.26858 | -95.60080 | 25071 ft | 415 kts | 62° |
| 2026-04-30 21:34 | 44.28009 | -95.56403 | 25072 ft | 415 kts | 62° |
| 2026-04-30 21:34 | 44.30322 | -95.49001 | 25073 ft | 415 kts | 62° |
| 2026-04-30 21:34 | 44.31475 | -95.45304 | 25069 ft | 415 kts | 62° |
| 2026-04-30 21:35 | 44.32629 | -95.41599 | 25068 ft | 415 kts | 62° |
| 2026-04-30 21:35 | 44.33770 | -95.37927 | 25067 ft | 415 kts | 62° |
| 2026-04-30 21:35 | 44.34916 | -95.34240 | 25065 ft | 415 kts | 63° |
| 2026-04-30 21:35 | 44.36053 | -95.30560 | 25062 ft | 415 kts | 63° |
| 2026-04-30 21:36 | 44.37200 | -95.26839 | 25059 ft | 415 kts | 63° |
| 2026-04-30 21:36 | 44.38340 | -95.23141 | 25059 ft | 415 kts | 63° |
| 2026-04-30 21:37 | 44.41731 | -95.12128 | 25063 ft | 413 kts | 63° |
| 2026-04-30 21:37 | 44.42865 | -95.08439 | 25066 ft | 413 kts | 63° |
| 2026-04-30 21:37 | 44.44002 | -95.04733 | 25066 ft | 413 kts | 63° |
| 2026-04-30 21:37 | 44.45129 | -95.01059 | 25070 ft | 413 kts | 63° |
| 2026-04-30 21:38 | 44.46266 | -94.97344 | 25069 ft | 414 kts | 63° |
| 2026-04-30 21:38 | 44.47396 | -94.93648 | 25069 ft | 414 kts | 63° |
| 2026-04-30 21:38 | 44.48537 | -94.89909 | 25068 ft | 413 kts | 63° |
| 2026-04-30 21:38 | 44.49657 | -94.86235 | 25066 ft | 414 kts | 63° |
| 2026-04-30 21:39 | 44.50785 | -94.82533 | 24991 ft | 413 kts | 63° |
| 2026-04-30 21:39 | 44.51907 | -94.78841 | 24731 ft | 411 kts | 63° |
| 2026-04-30 21:39 | 44.53034 | -94.75126 | 24471 ft | 408 kts | 63° |
| 2026-04-30 21:39 | 44.54138 | -94.71484 | 24114 ft | 405 kts | 63° |
| 2026-04-30 21:40 | 44.55232 | -94.67866 | 23708 ft | 402 kts | 63° |
| 2026-04-30 21:40 | 44.56310 | -94.64298 | 23284 ft | 400 kts | 63° |
| 2026-04-30 21:40 | 44.57397 | -94.60696 | 22840 ft | 397 kts | 63° |
| 2026-04-30 21:40 | 44.58456 | -94.57182 | 22400 ft | 394 kts | 63° |
| 2026-04-30 21:41 | 44.59522 | -94.53645 | 21962 ft | 391 kts | 63° |
| 2026-04-30 21:41 | 44.60579 | -94.50131 | 21525 ft | 388 kts | 63° |
| 2026-04-30 21:41 | 44.61621 | -94.46663 | 21086 ft | 385 kts | 63° |
| 2026-04-30 21:41 | 44.62648 | -94.43236 | 20657 ft | 382 kts | 63° |
| 2026-04-30 21:42 | 44.63680 | -94.39784 | 20226 ft | 379 kts | 64° |
| 2026-04-30 21:42 | 44.64623 | -94.36299 | 19826 ft | 377 kts | 67° |
| 2026-04-30 21:42 | 44.65425 | -94.32832 | 19420 ft | 374 kts | 69° |
| 2026-04-30 21:42 | 44.66200 | -94.29357 | 19019 ft | 371 kts | 69° |
| 2026-04-30 21:43 | 44.66970 | -94.25893 | 18598 ft | 369 kts | 69° |
| 2026-04-30 21:43 | 44.67728 | -94.22499 | 18208 ft | 366 kts | 69° |
| 2026-04-30 21:43 | 44.68498 | -94.19075 | 17784 ft | 363 kts | 69° |
| 2026-04-30 21:43 | 44.69253 | -94.15720 | 17360 ft | 361 kts | 69° |
| 2026-04-30 21:44 | 44.70005 | -94.12378 | 16947 ft | 358 kts | 69° |
| 2026-04-30 21:44 | 44.70740 | -94.09105 | 16550 ft | 355 kts | 69° |
| 2026-04-30 21:44 | 44.71487 | -94.05774 | 16144 ft | 353 kts | 69° |
| 2026-04-30 21:44 | 44.72211 | -94.02548 | 15741 ft | 351 kts | 69° |
| 2026-04-30 21:45 | 44.72944 | -93.99271 | 15338 ft | 348 kts | 69° |
| 2026-04-30 21:45 | 44.73666 | -93.96040 | 14931 ft | 346 kts | 69° |
| 2026-04-30 21:45 | 44.74376 | -93.92855 | 14529 ft | 343 kts | 69° |
| 2026-04-30 21:45 | 44.75083 | -93.89680 | 14113 ft | 341 kts | 69° |
| 2026-04-30 21:46 | 44.75787 | -93.86527 | 13712 ft | 338 kts | 69° |
| 2026-04-30 21:46 | 44.76486 | -93.83398 | 13298 ft | 335 kts | 68° |
| 2026-04-30 21:46 | 44.77182 | -93.80282 | 12908 ft | 332 kts | 68° |
| 2026-04-30 21:46 | 44.77855 | -93.77252 | 12811 ft | 318 kts | 68° |
| 2026-04-30 21:47 | 44.78497 | -93.74357 | 12740 ft | 304 kts | 68° |
| 2026-04-30 21:47 | 44.79115 | -93.71568 | 12608 ft | 294 kts | 68° |
| 2026-04-30 21:47 | 44.79717 | -93.68858 | 12251 ft | 290 kts | 68° |
| 2026-04-30 21:47 | 44.80314 | -93.66166 | 11574 ft | 289 kts | 68° |
| 2026-04-30 21:48 | 44.80911 | -93.63478 | 10858 ft | 291 kts | 67° |
| 2026-04-30 21:48 | 44.81511 | -93.60775 | 10287 ft | 289 kts | 67° |
| 2026-04-30 21:48 | 44.82097 | -93.58122 | 9726 ft | 285 kts | 67° |
| 2026-04-30 21:48 | 44.82686 | -93.55458 | 9016 ft | 283 kts | 68° |
| 2026-04-30 21:49 | 44.83250 | -93.52895 | 8908 ft | 272 kts | 68° |
| 2026-04-30 21:49 | 44.83801 | -93.50376 | 8931 ft | 268 kts | 68° |
| 2026-04-30 21:49 | 44.84352 | -93.47868 | 8945 ft | 265 kts | 68° |
| 2026-04-30 21:49 | 44.84883 | -93.45428 | 8941 ft | 264 kts | 70° |
| 2026-04-30 21:50 | 44.85013 | -93.42802 | 8936 ft | 272 kts | 96° |
| 2026-04-30 21:50 | 44.84308 | -93.40257 | 8780 ft | 292 kts | 117° |
| 2026-04-30 21:50 | 44.83234 | -93.37824 | 8542 ft | 293 kts | 120° |
| 2026-04-30 21:50 | 44.82121 | -93.35413 | 8263 ft | 291 kts | 120° |
| 2026-04-30 21:51 | 44.81040 | -93.33022 | 8011 ft | 287 kts | 120° |
| 2026-04-30 21:51 | 44.80017 | -93.30705 | 7963 ft | 272 kts | 120° |
| 2026-04-30 21:51 | 44.79062 | -93.28519 | 7884 ft | 257 kts | 119° |
| 2026-04-30 21:51 | 44.78138 | -93.26393 | 7638 ft | 249 kts | 119° |
| 2026-04-30 21:52 | 44.77255 | -93.24343 | 7296 ft | 246 kts | 119° |
| 2026-04-30 21:52 | 44.76378 | -93.22292 | 6905 ft | 244 kts | 118° |
| 2026-04-30 21:52 | 44.75500 | -93.20241 | 6509 ft | 242 kts | 118° |
| 2026-04-30 21:52 | 44.74635 | -93.18224 | 6120 ft | 241 kts | 118° |
| 2026-04-30 21:53 | 44.73786 | -93.16242 | 5757 ft | 240 kts | 118° |
| 2026-04-30 21:53 | 44.72926 | -93.14240 | 5564 ft | 238 kts | 118° |
| 2026-04-30 21:53 | 44.72075 | -93.12259 | 5512 ft | 238 kts | 119° |
| 2026-04-30 21:53 | 44.71209 | -93.10248 | 5385 ft | 238 kts | 119° |
| 2026-04-30 21:54 | 44.70362 | -93.08285 | 5262 ft | 237 kts | 119° |
| 2026-04-30 21:54 | 44.69498 | -93.06282 | 5134 ft | 237 kts | 118° |
| 2026-04-30 21:54 | 44.68643 | -93.04301 | 5009 ft | 236 kts | 118° |
| 2026-04-30 21:54 | 44.68037 | -93.02218 | 4855 ft | 230 kts | 92° |
| 2026-04-30 21:55 | 44.68339 | -93.00108 | 4731 ft | 219 kts | 56° |
| 2026-04-30 21:55 | 44.69376 | -92.98631 | 4610 ft | 210 kts | 25° |
| 2026-04-30 21:55 | 44.70749 | -92.98135 | 4484 ft | 204 kts | 357° |
| 2026-04-30 21:55 | 44.72087 | -92.98654 | 4363 ft | 199 kts | 330° |
| 2026-04-30 21:56 | 44.73107 | -92.99889 | 4296 ft | 184 kts | 317° |
| 2026-04-30 21:56 | 44.74043 | -93.00946 | 4167 ft | 162 kts | 332° |
| 2026-04-30 21:56 | 44.75050 | -93.01391 | 4024 ft | 145 kts | 353° |
| 2026-04-30 21:56 | 44.76002 | -93.01286 | 3973 ft | 136 kts | 7° |
| 2026-04-30 21:57 | 44.76929 | -93.01029 | 3991 ft | 133 kts | 8° |
| 2026-04-30 21:57 | 44.77789 | -93.00765 | 3943 ft | 121 kts | 8° |
| 2026-04-30 21:57 | 44.78620 | -93.00613 | 3818 ft | 117 kts | 346° |
| 2026-04-30 21:57 | 44.79219 | -93.01292 | 3580 ft | 115 kts | 303° |
| 2026-04-30 21:58 | 44.79606 | -93.02267 | 3184 ft | 117 kts | 306° |
| 2026-04-30 21:58 | 44.80029 | -93.03225 | 2981 ft | 117 kts | 306° |
| 2026-04-30 21:58 | 44.80463 | -93.04208 | 2970 ft | 118 kts | 305° |
| 2026-04-30 21:58 | 44.80898 | -93.05200 | 2964 ft | 118 kts | 305° |
| 2026-04-30 21:59 | 44.81325 | -93.06182 | 2958 ft | 118 kts | 305° |
| 2026-04-30 21:59 | 44.81751 | -93.07165 | 2941 ft | 118 kts | 305° |
| 2026-04-30 21:59 | 44.82176 | -93.08149 | 2774 ft | 117 kts | 305° |
| 2026-04-30 22:00 | 44.83020 | -93.10104 | 2457 ft | 117 kts | 304° |
| 2026-04-30 22:00 | 44.83863 | -93.12059 | 2456 ft | 116 kts | 305° |
| 2026-04-30 22:00 | 44.84267 | -93.13039 | 2382 ft | 117 kts | 303° |
| 2026-04-30 22:01 | 44.84665 | -93.14043 | 2177 ft | 116 kts | 303° |
| 2026-04-30 22:01 | 44.85059 | -93.15015 | 1956 ft | 116 kts | 303° |
| 2026-04-30 22:01 | 44.85479 | -93.15986 | 1738 ft | 115 kts | 306° |
| 2026-04-30 22:01 | 44.85924 | -93.16921 | 1519 ft | 115 kts | 307° |
| 2026-04-30 22:02 | 44.86362 | -93.17855 | 1322 ft | 115 kts | 305° |
| 2026-04-30 22:02 | 44.86776 | -93.18811 | 1068 ft | 116 kts | 303° |
| 2026-04-30 22:02 | 44.87197 | -93.19795 | 914 ft | 116 kts | 304° |
| 2026-04-30 22:02 | 44.87622 | -93.20761 | 830 ft | 118 kts | 303° |
| 2026-04-30 22:03 | 44.87898 | -93.21388 | 823 ft | 98 kts | 302° |
| 2026-04-30 22:03 | 44.88168 | -93.21999 | 829 ft | 48 kts | 301° |
| 2026-04-30 22:03 | 44.88255 | -93.22199 | 830 ft | 0 kts | 303° |
| 2026-04-30 22:04 | 44.88271 | -93.22234 | 830 ft | 8 kts | 303° |
| 2026-04-30 22:04 | 44.88363 | -93.22240 | 832 ft | 10 kts | 63° |
| 2026-04-30 22:05 | 44.88359 | -93.22142 | 832 ft | 2 kts | 126° |
| 2026-04-30 22:05 | 44.88359 | -93.22141 | 831 ft | 0 kts | 126° |
| 2026-04-30 22:05 | 44.88348 | -93.22118 | 831 ft | 4 kts | 125° |
| 2026-04-30 22:06 | 44.88342 | -93.22059 | 830 ft | 8 kts | 65° |
| 2026-04-30 22:06 | 44.88443 | -93.21905 | 828 ft | 12 kts | 45° |
| 2026-04-30 22:06 | 44.88508 | -93.21815 | 828 ft | 13 kts | 44° |
| 2026-04-30 22:07 | 44.88531 | -93.21693 | 826 ft | 15 kts | 108° |
| 2026-04-30 22:07 | 44.88494 | -93.21555 | 825 ft | 15 kts | 153° |
| 2026-04-30 22:07 | 44.88434 | -93.21555 | 825 ft | 1 kts | 196° |
| 2026-04-30 22:07 | 44.88422 | -93.21561 | 825 ft | 0 kts | 202° |